createdAt,value
2023-01-20T00:02:24.787Z,0.75
2023-01-20T00:07:28.946Z,1.00
2023-01-20T00:12:32.609Z,0.50
2023-01-20T00:17:35.382Z,0.00
2023-01-20T00:22:42.345Z,1.00
2023-01-20T00:27:46.578Z,1.25
2023-01-20T00:32:49.466Z,2.00
2023-01-20T00:37:53.736Z,1.75
2023-01-20T00:42:56.762Z,1.00
2023-01-20T00:47:59.513Z,1.00
2023-01-20T00:53:03.661Z,1.00
2023-01-20T00:58:06.494Z,1.25
2023-01-20T01:03:10.277Z,1.50
2023-01-20T01:08:15.436Z,0.00
2023-01-20T01:13:18.310Z,1.00
2023-01-20T01:18:21.320Z,1.75
2023-01-20T01:23:25.692Z,2.00
2023-01-20T01:28:28.459Z,1.00
2023-01-20T01:33:31.715Z,1.00
2023-01-20T01:38:36.102Z,1.75
2023-01-20T01:43:39.413Z,0.75
2023-01-20T01:48:46.487Z,0.75
2023-01-20T01:53:55.940Z,1.00
2023-01-20T01:59:02.339Z,0.00
2023-01-20T02:04:12.472Z,1.25
2023-01-20T02:09:17.003Z,1.00
2023-01-20T02:14:23.370Z,1.75
2023-01-20T02:19:56.062Z,0.75
2023-01-20T02:25:25.350Z,2.00
2023-01-20T02:31:02.101Z,0.75
2023-01-20T02:36:10.421Z,1.75
2023-01-20T02:41:21.468Z,1.00
2023-01-20T02:46:32.043Z,1.00
2023-01-20T02:51:43.030Z,0.75
2023-01-20T02:56:48.005Z,0.50
2023-01-20T03:01:54.588Z,0.00
2023-01-20T03:07:01.601Z,1.00
2023-01-20T03:12:12.840Z,0.50
2023-01-20T03:17:15.944Z,0.25
2023-01-20T03:22:20.073Z,0.75
2023-01-20T03:27:22.814Z,1.00
2023-01-20T03:32:27.094Z,1.00
2023-01-20T03:37:31.355Z,0.50
2023-01-20T03:42:38.858Z,1.50
2023-01-20T03:47:51.422Z,1.00
2023-01-20T03:53:00.143Z,0.50
2023-01-20T03:58:07.442Z,0.00
2023-01-20T04:03:14.486Z,0.00
2023-01-20T04:08:23.806Z,0.00
2023-01-20T04:13:26.704Z,0.25
2023-01-20T04:18:30.164Z,0.00
2023-01-20T04:23:40.093Z,0.50
2023-01-20T04:28:42.945Z,0.50
2023-01-20T04:33:45.742Z,0.50
2023-01-20T04:38:49.930Z,1.00
2023-01-20T04:43:52.655Z,0.00
2023-01-20T04:48:55.413Z,0.75
2023-01-20T04:54:00.355Z,0.25
2023-01-20T04:59:03.199Z,0.00
2023-01-20T05:04:06.028Z,1.00
2023-01-20T05:09:11.853Z,0.75
2023-01-20T05:14:15.085Z,0.25
2023-01-20T05:19:18.108Z,1.50
2023-01-20T05:24:22.565Z,1.00
2023-01-20T05:29:25.353Z,1.00
2023-01-20T05:34:28.138Z,1.00
2023-01-20T05:39:32.232Z,0.00
2023-01-20T05:44:35.893Z,0.75
2023-01-20T05:49:38.714Z,0.00
2023-01-20T05:54:42.877Z,1.00
2023-01-20T05:59:47.521Z,2.00
2023-01-20T06:04:50.528Z,0.00
2023-01-20T06:09:54.746Z,0.00
2023-01-20T06:14:57.510Z,0.00
2023-01-20T06:20:00.527Z,0.00
2023-01-20T06:25:05.186Z,0.00
2023-01-20T06:30:09.473Z,0.00
2023-01-20T06:35:12.564Z,0.75
2023-01-20T06:40:17.706Z,0.50
2023-01-20T06:45:20.537Z,0.00
2023-01-20T06:50:23.339Z,0.00
2023-01-20T06:55:27.794Z,1.25
2023-01-20T07:00:30.756Z,0.00
2023-01-20T07:05:33.624Z,0.00
2023-01-20T07:10:38.583Z,0.50
2023-01-20T07:15:41.375Z,0.25
2023-01-20T07:20:44.264Z,1.00
2023-01-20T07:25:48.571Z,0.25
2023-01-20T07:30:51.370Z,0.75
2023-01-20T07:35:54.774Z,0.00
2023-01-20T07:41:00.595Z,0.00
2023-01-20T07:46:05.228Z,0.00
2023-01-20T07:51:09.735Z,0.00
2023-01-20T07:56:15.992Z,0.25
2023-01-20T08:01:21.408Z,0.50
2023-01-20T08:06:26.074Z,0.25
2023-01-20T08:11:32.048Z,11.50
2023-01-20T08:16:34.917Z,13.00
2023-01-20T08:21:37.842Z,13.25
2023-01-20T08:26:41.976Z,12.00
2023-01-20T08:31:44.928Z,11.50
2023-01-20T08:36:50.214Z,8.00
2023-01-20T08:41:54.507Z,6.50
2023-01-20T08:46:59.350Z,6.00
2023-01-20T08:52:02.288Z,5.00
2023-01-20T08:57:06.581Z,5.75
2023-01-20T09:02:10.568Z,5.00
2023-01-20T09:07:13.723Z,4.00
2023-01-20T09:12:17.981Z,4.75
2023-01-20T09:17:20.779Z,3.00
2023-01-20T09:22:23.530Z,3.75
2023-01-20T09:27:27.584Z,3.00
2023-01-20T09:32:30.394Z,3.00
2023-01-20T09:37:50.512Z,3.00
2023-01-20T09:43:23.216Z,2.75
2023-01-20T09:48:53.463Z,2.00
2023-01-20T09:54:04.259Z,3.00
2023-01-20T09:59:13.409Z,1.50
2023-01-20T10:04:21.854Z,3.00
2023-01-20T10:09:33.587Z,2.00
2023-01-20T10:14:41.584Z,2.00
2023-01-20T10:19:50.578Z,2.00
2023-01-20T10:25:01.159Z,2.00
2023-01-20T10:30:10.484Z,3.50
2023-01-20T10:35:20.032Z,1.75
2023-01-20T10:40:35.260Z,1.75
2023-01-20T10:45:55.509Z,2.75
2023-01-20T10:51:06.177Z,3.50
2023-01-20T10:56:27.887Z,5.00
2023-01-20T11:01:32.064Z,6.75
2023-01-20T11:06:35.101Z,4.75
2023-01-20T11:11:38.386Z,5.00
2023-01-20T11:16:46.682Z,5.00
2023-01-20T11:21:49.783Z,14.50
2023-01-20T11:26:52.901Z,8.00
2023-01-20T11:31:59.571Z,7.50
2023-01-20T11:37:18.980Z,6.50
2023-01-20T11:42:23.925Z,5.00
2023-01-20T11:47:30.137Z,4.25
2023-01-20T11:52:34.189Z,4.25
2023-01-20T11:57:38.420Z,4.75
2023-01-20T12:02:42.561Z,4.00
2023-01-20T12:07:48.291Z,4.00
2023-01-20T12:12:55.615Z,5.00
2023-01-20T12:18:03.136Z,4.00
2023-01-20T12:23:21.310Z,3.50
2023-01-20T12:28:28.183Z,4.75
2023-01-20T12:33:35.436Z,3.75
2023-01-20T12:38:49.031Z,2.50
2023-01-20T12:44:01.708Z,3.25
2023-01-20T12:49:27.086Z,3.00
2023-01-20T12:54:56.287Z,3.00
2023-01-20T13:00:14.081Z,3.50
2023-01-20T13:05:39.229Z,4.00
2023-01-20T13:10:57.619Z,3.50
2023-01-20T13:16:10.399Z,3.25
2023-01-20T13:21:19.094Z,2.00
2023-01-20T13:26:22.441Z,3.00
2023-01-20T13:31:43.130Z,4.00
2023-01-20T13:37:28.383Z,5.00
2023-01-20T13:42:49.435Z,4.75
2023-01-20T13:47:58.753Z,5.00
2023-01-20T13:53:28.136Z,5.00
2023-01-20T13:59:00.233Z,4.00
2023-01-20T14:04:05.163Z,5.00
2023-01-20T14:09:18.696Z,5.00
2023-01-20T14:14:23.826Z,5.50
2023-01-20T14:19:32.302Z,5.50
2023-01-20T14:24:38.153Z,6.00
2023-01-20T14:29:41.175Z,5.00
2023-01-20T14:34:44.652Z,6.50
2023-01-20T14:39:51.856Z,5.50
2023-01-20T14:44:57.079Z,4.75
2023-01-20T14:50:00.284Z,4.00
2023-01-20T14:55:04.685Z,3.00
2023-01-20T15:00:20.385Z,3.00
2023-01-20T15:05:29.759Z,3.50
2023-01-20T15:10:34.094Z,4.00
2023-01-20T15:15:37.128Z,3.00
2023-01-20T15:20:42.671Z,3.00
2023-01-20T15:25:48.012Z,3.25
2023-01-20T15:30:51.054Z,3.00
2023-01-20T15:35:56.315Z,4.00
2023-01-20T15:41:00.620Z,3.50
2023-01-20T15:46:03.378Z,3.00
2023-01-20T15:51:07.100Z,2.50
2023-01-20T15:56:17.280Z,3.50
2023-01-20T16:01:23.836Z,4.00
2023-01-20T16:06:30.893Z,4.00
2023-01-20T16:11:35.207Z,3.50
2023-01-20T16:16:37.990Z,3.00
2023-01-20T16:21:41.367Z,4.00
2023-01-20T16:26:48.143Z,4.00
2023-01-20T16:31:50.931Z,3.75
2023-01-20T16:36:53.830Z,4.00
2023-01-20T16:41:58.111Z,4.00
2023-01-20T16:47:00.959Z,3.25
2023-01-20T16:52:04.538Z,3.50
2023-01-20T16:57:10.135Z,5.00
2023-01-20T17:02:12.959Z,4.00
2023-01-20T17:07:15.809Z,5.00
2023-01-20T17:12:20.002Z,5.00
2023-01-20T17:17:23.589Z,6.25
2023-01-20T17:22:26.416Z,7.00
2023-01-20T17:27:30.561Z,7.00
2023-01-20T17:32:33.359Z,9.00
2023-01-20T17:37:36.117Z,10.25
2023-01-20T17:42:40.560Z,10.00
2023-01-20T17:47:43.369Z,11.75
2023-01-20T17:52:46.144Z,13.00
2023-01-20T17:57:52.457Z,14.00
2023-01-20T18:02:57.073Z,12.25
2023-01-20T18:07:59.935Z,14.75
2023-01-20T18:13:04.574Z,14.50
2023-01-20T18:18:07.722Z,12.25
2023-01-20T18:23:10.636Z,14.00
2023-01-20T18:28:14.879Z,13.00
2023-01-20T18:33:17.676Z,11.25
2023-01-20T18:38:20.454Z,12.00
2023-01-20T18:43:24.589Z,13.00
2023-01-20T18:48:27.400Z,10.75
2023-01-20T18:53:30.897Z,11.75
2023-01-20T18:58:36.411Z,12.00
2023-01-20T19:03:40.752Z,13.50
2023-01-20T19:08:45.976Z,13.50
2023-01-20T19:13:53.247Z,16.25
2023-01-20T19:18:57.803Z,16.00
2023-01-20T19:24:05.638Z,18.75
2023-01-20T19:29:17.293Z,16.75
2023-01-20T19:34:20.164Z,16.00
2023-01-20T19:39:23.295Z,19.40
2023-01-20T19:44:27.756Z,15.50
2023-01-20T19:49:30.825Z,16.00
2023-01-20T19:54:33.806Z,15.00
2023-01-20T19:59:40.761Z,16.50
2023-01-20T20:04:43.621Z,14.75
2023-01-20T20:09:46.498Z,15.00
2023-01-20T20:14:51.449Z,15.00
2023-01-20T20:19:54.278Z,12.50
2023-01-20T20:24:57.031Z,15.00
2023-01-20T20:30:01.334Z,15.00
2023-01-20T20:35:04.327Z,13.50
2023-01-20T20:40:08.583Z,14.00
2023-01-20T20:45:13.217Z,12.50
2023-01-20T20:50:16.392Z,14.00
2023-01-20T20:55:19.277Z,13.50
2023-01-20T21:00:28.184Z,13.00
2023-01-20T21:05:31.441Z,12.00
2023-01-20T21:10:34.395Z,11.00
2023-01-20T21:15:38.832Z,11.25
2023-01-20T21:20:41.624Z,12.00
2023-01-20T21:25:44.441Z,13.00
2023-01-20T21:30:48.588Z,11.75
2023-01-20T21:35:51.509Z,11.75
2023-01-20T21:41:03.379Z,10.75
2023-01-20T21:46:07.716Z,11.50
2023-01-20T21:51:28.717Z,10.00
2023-01-20T21:56:31.609Z,11.25
2023-01-20T22:01:36.004Z,11.50
2023-01-20T22:06:38.738Z,12.75
2023-01-20T22:11:41.886Z,11.25
2023-01-20T22:16:46.004Z,9.00
2023-01-20T22:21:48.790Z,9.50
2023-01-20T22:26:51.656Z,11.00
2023-01-20T22:31:57.449Z,10.00
2023-01-20T22:37:00.662Z,10.25
2023-01-20T22:42:03.954Z,9.00
2023-01-20T22:47:10.083Z,9.50
2023-01-20T22:52:12.877Z,9.25
2023-01-20T22:57:15.972Z,8.50
2023-01-20T23:02:20.200Z,10.00
2023-01-20T23:07:23.233Z,9.50
2023-01-20T23:12:26.115Z,9.00
2023-01-20T23:17:31.904Z,9.25
2023-01-20T23:22:34.935Z,8.00
2023-01-20T23:27:37.748Z,8.75
2023-01-20T23:32:41.967Z,9.75
2023-01-20T23:37:44.705Z,9.25
2023-01-20T23:42:47.894Z,8.75
2023-01-20T23:47:52.954Z,7.75
2023-01-20T23:52:55.762Z,10.00
2023-01-20T23:57:58.554Z,10.00
